M I D A S
Marine Information and Data Acquisition System
Tripno 1480 of the Zeeleeuw from 2008-05-06 12:10:16 to 2008-05-06 13:47:56
Back to CruiseResearch ActivitiesStationsMapUnderway DataData graphs

EquipmentUnitsComment
TimeDGPSUTC
LatitudeDGPSDM.mWGS84
LongitudeDGPSDM.mWGS84
HeadingGyrodeg 
SOGDGPSknotsSpeed over ground
COGDGPSdegCourse over ground
DepthEcho soundermeters200 kHz
Missing or incorrect values are displayed as -999
Navigation data collected by the RV Zeeleeuw from 2008-05-06 08:21:52 to 2008-05-06 14:00:11
Time Latitude Longitude Heading SOG COG Depth
2008-05-06 08:22:57 51°13.689 2°55.897 120 3.5 303 -999
2008-05-06 08:23:57 51°13.714 2°55.794 99.3 4.2 285 -999
2008-05-06 08:24:57 51°13.721 2°55.743 64.5 1.5 264 12.2
2008-05-06 08:25:57 51°13.723 2°55.715 13.2 1.8 359 -999
2008-05-06 08:26:57 51°13.757 2°55.694 331.4 2.5 330 -999
2008-05-06 08:27:57 51°13.798 2°55.657 336 3.1 334 -999
2008-05-06 08:28:57 51°13.85 2°55.635 358.9 3.3 358 8.3
2008-05-06 08:29:57 51°13.905 2°55.64 6.1 3.1 4 -999
2008-05-06 08:30:57 51°13.935 2°55.641 355.8 1.3 356 -999
2008-05-06 08:31:57 51°13.95 2°55.636 346 0.6 344 -999
2008-05-06 08:32:57 51°13.949 2°55.635 345.9 0.1 212 -999
2008-05-06 08:33:57 51°13.949 2°55.632 341.1 0.1 293 -999
2008-05-06 08:34:57 51°13.951 2°55.629 338.7 0.2 314 10.1
2008-05-06 08:35:57 51°13.953 2°55.627 335.4 0.1 310 10.1
2008-05-06 08:36:57 51°13.954 2°55.624 334.2 0.2 320 10.1
2008-05-06 08:37:57 51°13.971 2°55.606 326.1 4.1 326 -999
2008-05-06 08:38:57 51°14.059 2°55.5 322.6 7.8 323 -999
2008-05-06 08:39:57 51°14.172 2°55.374 326.7 8.3 327 -999
2008-05-06 08:40:57 51°14.275 2°55.241 317.1 7.5 316 9.4
2008-05-06 08:41:57 51°14.357 2°55.098 307.4 7.5 307 10.1
2008-05-06 08:42:56 51°14.43 2°54.885 301.7 11.1 299 9.8
2008-05-06 08:43:57 51°14.511 2°54.579 293.4 12.9 289 9.5
2008-05-06 08:44:57 51°14.563 2°54.243 284.2 13.2 280 9.9
2008-05-06 08:45:57 51°14.6 2°53.897 283.6 13 280 10.1
2008-05-06 08:46:57 51°14.623 2°53.557 278.5 12.7 275 7.7
2008-05-06 08:47:57 51°14.639 2°53.217 275.7 13 273 7.8
2008-05-06 08:48:57 51°14.648 2°52.872 274.9 13.1 270 8.2
2008-05-06 08:49:57 51°14.636 2°52.522 267.8 13.3 265 8.6
2008-05-06 08:50:57 51°14.603 2°52.173 262.8 13.4 262 8.7
2008-05-06 08:51:57 51°14.57 2°51.824 263.4 13.3 262 8.8
2008-05-06 08:52:57 51°14.54 2°51.475 264.6 13.2 262 9
2008-05-06 08:53:57 51°14.508 2°51.245 252.7 6 253 9.3
2008-05-06 08:54:57 51°14.494 2°51.144 261.7 3.3 253 9.4
2008-05-06 08:55:57 51°14.478 2°51.07 261.5 2.8 252 9.3
2008-05-06 08:56:57 51°14.461 2°50.974 262.1 4.7 257 9.3
2008-05-06 08:57:57 51°14.452 2°50.865 276.4 3.8 264 9.4
2008-05-06 08:58:57 51°14.447 2°50.775 282.5 3.1 265 9.6
2008-05-06 08:59:57 51°14.442 2°50.699 284.9 2.9 263 9.6
2008-05-06 09:00:57 51°14.433 2°50.618 275.6 3.2 259 9.6
2008-05-06 09:01:57 51°14.423 2°50.532 276.3 3.3 260 9.7
2008-05-06 09:02:57 51°14.414 2°50.446 278 3.3 260 9.8
2008-05-06 09:03:57 51°14.403 2°50.359 273.3 3.3 257 9.9
2008-05-06 09:04:57 51°14.389 2°50.274 271 3.3 254 10
2008-05-06 09:05:57 51°14.374 2°50.19 269.2 3.3 254 10
2008-05-06 09:06:57 51°14.358 2°50.107 267.3 3.3 252 10.1
2008-05-06 09:07:57 51°14.342 2°50.024 264.8 3.3 251 10.1
2008-05-06 09:08:57 51°14.323 2°49.941 263.3 3.3 250 10.2
2008-05-06 09:09:57 51°14.305 2°49.859 261.9 3.3 250 10.3
2008-05-06 09:10:57 51°14.285 2°49.777 260.5 3.3 248 10.4
2008-05-06 09:11:57 51°14.264 2°49.696 259.6 3.3 247 10.5
2008-05-06 09:12:57 51°14.243 2°49.616 259.1 3.3 246 10.5
2008-05-06 09:13:57 51°14.221 2°49.536 258 3.2 247 10.7
2008-05-06 09:14:57 51°14.199 2°49.457 257.6 3.3 246 10.6
2008-05-06 09:15:57 51°14.177 2°49.378 258 3.2 247 10.7
2008-05-06 09:16:57 51°14.156 2°49.299 259 3.2 246 10.7
2008-05-06 09:17:57 51°14.135 2°49.22 259.1 3.2 247 10.8
2008-05-06 09:18:57 51°14.114 2°49.14 260.5 3.2 246 10.9
2008-05-06 09:19:57 51°14.094 2°49.061 260 3.2 249 10.9
2008-05-06 09:20:57 51°14.074 2°48.982 261.6 3.2 248 10.9
2008-05-06 09:21:57 51°14.055 2°48.903 263.9 3.2 249 11.1
2008-05-06 09:22:57 51°14.037 2°48.824 266.3 3.2 250 11.1
2008-05-06 09:23:57 51°14.02 2°48.745 268.2 3.1 251 11
2008-05-06 09:24:57 51°14.004 2°48.667 270.2 3.1 251 11.1
2008-05-06 09:25:57 51°13.989 2°48.588 270.2 3.1 253 11
2008-05-06 09:26:57 51°13.974 2°48.51 273 3 255 11.1
2008-05-06 09:27:57 51°13.96 2°48.434 273.8 3 253 11.1
2008-05-06 09:28:57 51°13.952 2°48.361 299.2 2.6 265 11.3
2008-05-06 09:29:57 51°13.946 2°48.301 310.2 2.1 260 11.3
2008-05-06 09:30:57 51°13.938 2°48.249 310 1.9 254 11.3
2008-05-06 09:31:57 51°13.928 2°48.202 308.9 1.8 250 11.3
2008-05-06 09:32:57 51°13.918 2°48.156 312.7 1.9 258 11.4
2008-05-06 09:33:57 51°13.937 2°48.11 2.9 2.1 338 11.5
2008-05-06 09:34:57 51°13.957 2°48.138 72.3 2.3 92 11.3
2008-05-06 09:35:57 51°13.959 2°48.215 71.6 3.2 79 11.4
2008-05-06 09:36:57 51°13.976 2°48.302 65.3 3.8 72 11.3
2008-05-06 09:37:56 51°13.997 2°48.408 67.7 4.5 73 11.2
2008-05-06 09:38:57 51°14.019 2°48.528 68.1 4.7 74 11.2
2008-05-06 09:39:56 51°14.041 2°48.658 69.9 5.9 75 11.3
2008-05-06 09:40:57 51°14.071 2°48.822 70 6.7 74 11.4
2008-05-06 09:41:57 51°14.104 2°49.003 69.6 7.4 73 11.1
2008-05-06 09:42:57 51°14.14 2°49.193 69.4 7.5 73 11.1
2008-05-06 09:43:57 51°14.168 2°49.389 75.3 7.6 80 10.8
2008-05-06 09:44:57 51°14.19 2°49.589 76.1 7.7 79 10.6
2008-05-06 09:45:57 51°14.212 2°49.791 75.6 8.1 79 10.3
2008-05-06 09:46:56 51°14.236 2°50.004 76 8.3 80 9.9
2008-05-06 09:47:57 51°14.261 2°50.226 75.6 8.4 79 9.8
2008-05-06 09:48:56 51°14.288 2°50.442 75.4 8.5 79 9.6
2008-05-06 09:49:56 51°14.316 2°50.662 75.7 8.5 79 9.5
2008-05-06 09:50:57 51°14.346 2°50.887 74.7 8.6 77 9.4
2008-05-06 09:51:56 51°14.377 2°51.106 73.8 8.6 77 9.3
2008-05-06 09:52:57 51°14.409 2°51.334 74.5 8.7 78 9.3
2008-05-06 09:53:56 51°14.44 2°51.556 74.6 8.8 77 9.4
2008-05-06 09:54:57 51°14.472 2°51.789 75 8.9 76 9.3
2008-05-06 09:55:56 51°14.504 2°52.058 78.4 11.2 81 9.2
2008-05-06 09:56:57 51°14.536 2°52.358 78.4 11.3 81 9.3
2008-05-06 09:57:57 51°14.556 2°52.658 81.8 11.4 84 9.3
2008-05-06 09:58:57 51°14.576 2°52.959 82.2 11.3 84 9
2008-05-06 09:59:57 51°14.588 2°53.26 84.8 11.4 85 8.7
2008-05-06 10:00:57 51°14.594 2°53.562 87.3 11.5 95 8.8
2008-05-06 10:01:57 51°14.583 2°53.865 89.2 11.2 92 10.4
2008-05-06 10:02:56 51°14.551 2°54.156 98.9 11.4 104 11
2008-05-06 10:03:57 51°14.492 2°54.447 106 11.1 114 10.5
2008-05-06 10:04:56 51°14.43 2°54.714 105.6 11.1 110 10.6
2008-05-06 10:05:57 51°14.363 2°54.979 109.8 9.8 111 9.8
2008-05-06 10:06:57 51°14.3 2°55.177 118.2 7.6 122 10
2008-05-06 10:07:57 51°14.217 2°55.324 138.1 7.7 140 -999
2008-05-06 10:08:57 51°14.113 2°55.433 153 7 157 -999
2008-05-06 10:09:57 51°14.012 2°55.506 154.5 6.5 155 -999
2008-05-06 10:10:57 51°13.922 2°55.569 156.1 5.4 158 -999
2008-05-06 10:11:57 51°13.842 2°55.628 151.6 5.2 152 -999
2008-05-06 10:12:57 51°13.77 2°55.694 143.4 4.7 144 -999
2008-05-06 10:13:57 51°13.72 2°55.78 124.4 4.2 124 -999
2008-05-06 10:14:57 51°13.687 2°55.874 119 3.7 119 8.1
2008-05-06 10:15:57 51°13.67 2°55.941 112.6 1.7 111 7.1
2008-05-06 10:16:57 51°13.666 2°55.953 126.2 0.1 242 6.9
2008-05-06 10:17:57 51°13.665 2°55.953 124.6 0.1 77 6.7
2008-05-06 10:18:57 51°13.666 2°55.954 124.9 -999 324 6.9
2008-05-06 10:19:57 51°13.666 2°55.954 127.9 -999 90 6.9
2008-05-06 10:20:56 51°13.666 2°55.955 126.5 -999 123 5.2
2008-05-06 10:21:57 51°13.666 2°55.955 126.5 -999 94 6.8
2008-05-06 10:22:57 51°13.665 2°55.955 126.5 -999 342 6.9
2008-05-06 10:23:57 51°13.665 2°55.955 126.5 -999 136 6.9
2008-05-06 10:24:57 51°13.666 2°55.955 126.5 -999 234 -999
2008-05-06 10:25:57 51°13.665 2°55.955 126.5 -999 20 6.8
2008-05-06 10:26:57 51°13.666 2°55.955 126.6 -999 275 7
2008-05-06 10:27:56 51°13.666 2°55.954 126.6 -999 334 6.9
2008-05-06 10:28:57 51°13.665 2°55.955 126.6 -999 355 5.3
2008-05-06 10:29:57 51°13.665 2°55.955 126.6 -999 340 7.1
2008-05-06 10:30:57 51°13.665 2°55.955 126.6 -999 48 7
2008-05-06 10:31:57 51°13.665 2°55.955 126.6 -999 14 7.1
2008-05-06 10:32:57 51°13.666 2°55.955 126.6 -999 2 7.2
2008-05-06 10:33:57 51°13.666 2°55.955 126.6 -999 11 7.3
2008-05-06 10:34:57 51°13.665 2°55.955 126.6 -999 25 7.3
2008-05-06 10:35:57 51°13.665 2°55.955 126.6 -999 275 5.4
2008-05-06 10:36:56 51°13.666 2°55.956 126.6 -999 246 7.2
2008-05-06 10:37:57 51°13.665 2°55.955 126.6 -999 30 -999
2008-05-06 10:38:56 51°13.665 2°55.956 126.6 -999 257 -999
2008-05-06 10:39:57 51°13.665 2°55.955 126.6 -999 -999 7.4
2008-05-06 10:40:57 51°13.665 2°55.955 126.6 -999 3 7.4
2008-05-06 10:41:57 51°13.665 2°55.954 126.6 -999 260 7.4
2008-05-06 10:42:57 51°13.665 2°55.954 126.6 -999 40 7.5
2008-05-06 10:43:57 51°13.665 2°55.954 126.6 -999 256 7.4
2008-05-06 10:44:57 51°13.665 2°55.954 126.6 -999 18 7.5
2008-05-06 10:45:57 51°13.665 2°55.955 126.6 -999 304 -999
2008-05-06 10:46:57 51°13.665 2°55.955 126.5 -999 42 7.7
2008-05-06 10:47:57 51°13.665 2°55.955 126.5 -999 17 -999
2008-05-06 10:48:57 51°13.666 2°55.954 126.5 -999 341 7.7
2008-05-06 10:49:57 51°13.666 2°55.955 126.5 -999 302 7.5
2008-05-06 10:50:57 51°13.667 2°55.955 126.5 -999 352 7.8
2008-05-06 10:51:57 51°13.667 2°55.955 126.5 -999 18 7.8
2008-05-06 10:52:57 51°13.666 2°55.955 126.5 -999 280 7.9
2008-05-06 10:53:57 51°13.667 2°55.955 126.5 -999 35 7.8
2008-05-06 10:54:57 51°13.667 2°55.955 126.5 -999 247 7.9
2008-05-06 10:55:57 51°13.667 2°55.956 126.5 -999 56 -999
2008-05-06 10:56:57 51°13.667 2°55.956 126.5 -999 127 8
2008-05-06 10:57:57 51°13.667 2°55.956 126.5 -999 181 8.1
2008-05-06 10:58:57 51°13.666 2°55.954 126.5 -999 33 8.2
2008-05-06 10:59:57 51°13.666 2°55.955 126.5 -999 250 8.2
2008-05-06 11:00:57 51°13.665 2°55.954 126.5 -999 314 8.2
2008-05-06 11:01:57 51°13.666 2°55.954 126.4 -999 52 8
2008-05-06 11:02:57 51°13.666 2°55.954 126.5 -999 200 8.3
2008-05-06 11:03:57 51°13.666 2°55.955 126.5 -999 192 8.3
2008-05-06 11:04:57 51°13.666 2°55.954 126.4 -999 269 8.2
2008-05-06 11:05:57 51°13.666 2°55.955 126.5 -999 217 -999
2008-05-06 11:06:57 51°13.666 2°55.955 126.4 -999 254 8.3
2008-05-06 11:07:57 51°13.666 2°55.954 126.6 -999 247 8.5
2008-05-06 11:08:57 51°13.666 2°55.955 126.6 -999 227 4.7
2008-05-06 11:09:57 51°13.666 2°55.955 126.5 -999 134 -999
2008-05-06 11:10:57 51°13.666 2°55.955 126.5 -999 204 -999
2008-05-06 11:11:57 51°13.666 2°55.955 126.5 -999 320 -999
2008-05-06 11:12:57 51°13.665 2°55.956 126.5 -999 151 -999
2008-05-06 11:13:57 51°13.666 2°55.956 126.6 -999 263 -999
2008-05-06 11:14:57 51°13.666 2°55.957 126.6 -999 338 -999
2008-05-06 11:15:57 51°13.666 2°55.956 126.6 -999 261 -999
2008-05-06 11:16:57 51°13.666 2°55.956 126.6 -999 40 -999
2008-05-06 11:17:57 51°13.665 2°55.956 126.6 0.1 235 -999
2008-05-06 11:18:57 51°13.665 2°55.956 126.7 -999 278 -999
2008-05-06 11:19:57 51°13.665 2°55.956 126.7 -999 269 9
2008-05-06 11:20:57 51°13.666 2°55.956 126.7 -999 34 9
2008-05-06 11:21:57 51°13.665 2°55.956 126.7 -999 35 -999
2008-05-06 11:22:57 51°13.665 2°55.956 126.7 -999 233 -999
2008-05-06 11:23:57 51°13.665 2°55.956 126.8 -999 51 9.1
2008-05-06 11:24:57 51°13.666 2°55.955 126.8 0.1 48 9.1
2008-05-06 11:25:57 51°13.666 2°55.955 126.8 -999 3 9.1
2008-05-06 11:26:57 51°13.665 2°55.954 126.8 -999 61 9
2008-05-06 11:27:57 51°13.665 2°55.954 126.8 -999 40 9
2008-05-06 11:28:57 51°13.665 2°55.954 126.9 -999 27 -999
2008-05-06 11:29:57 51°13.665 2°55.955 126.9 -999 249 9.1
2008-05-06 11:30:57 51°13.665 2°55.954 126.9 -999 320 9
2008-05-06 11:31:57 51°13.665 2°55.955 126.9 -999 234 9
2008-05-06 11:32:57 51°13.666 2°55.955 126.9 -999 50 9.1
2008-05-06 11:33:57 51°13.665 2°55.954 126.9 -999 37 -999
2008-05-06 11:34:57 51°13.666 2°55.954 126.9 -999 232 9.1
2008-05-06 11:35:57 51°13.666 2°55.955 126.9 -999 142 -999
2008-05-06 11:36:57 51°13.666 2°55.954 126.9 -999 228 -999
2008-05-06 11:37:57 51°13.666 2°55.954 126.9 -999 304 -999
2008-05-06 11:38:57 51°13.665 2°55.953 127 -999 241 -999
2008-05-06 11:39:57 51°13.666 2°55.954 127 -999 44 9.4
2008-05-06 11:40:57 51°13.666 2°55.954 127 -999 34 9.4
2008-05-06 11:41:57 51°13.666 2°55.954 127 -999 244 -999
2008-05-06 11:42:57 51°13.666 2°55.955 127.1 -999 49 -999
2008-05-06 11:43:57 51°13.666 2°55.955 127.1 -999 45 -999
2008-05-06 11:44:57 51°13.666 2°55.954 127.1 -999 245 9.5
2008-05-06 11:45:57 51°13.666 2°55.954 127.1 -999 67 -999
2008-05-06 11:46:57 51°13.666 2°55.955 127.1 -999 87 9.6
2008-05-06 11:47:57 51°13.665 2°55.955 127 -999 255 9.4
2008-05-06 11:48:57 51°13.665 2°55.956 127 -999 52 -999
2008-05-06 11:49:57 51°13.665 2°55.956 127 -999 294 9.4
2008-05-06 11:50:57 51°13.665 2°55.956 127 -999 236 9.4
2008-05-06 11:51:57 51°13.665 2°55.956 126.9 -999 326 -999
2008-05-06 11:52:57 51°13.665 2°55.957 126.9 0.1 235 -999
2008-05-06 11:53:57 51°13.665 2°55.956 126.9 -999 298 -999
2008-05-06 11:54:57 51°13.665 2°55.956 126.9 -999 243 -999
2008-05-06 11:55:57 51°13.666 2°55.956 126.9 -999 53 -999
2008-05-06 11:56:57 51°13.665 2°55.955 126.8 -999 10 -999
2008-05-06 11:57:57 51°13.665 2°55.955 126.8 -999 33 -999
2008-05-06 11:58:57 51°13.665 2°55.955 126.8 -999 265 -999
2008-05-06 11:59:57 51°13.665 2°55.956 126.8 -999 279 -999
2008-05-06 12:00:57 51°13.664 2°55.956 126.8 -999 262 9.5
2008-05-06 12:01:57 51°13.664 2°55.957 126.7 -999 39 -999
2008-05-06 12:02:57 51°13.663 2°55.956 126.7 -999 176 -999
2008-05-06 12:03:57 51°13.663 2°55.956 126.6 -999 234 -999
2008-05-06 12:04:57 51°13.663 2°55.955 126.6 -999 259 -999
2008-05-06 12:05:57 51°13.664 2°55.955 126.6 -999 14 9.7
2008-05-06 12:06:57 51°13.664 2°55.955 126.5 -999 223 9.7
2008-05-06 12:07:57 51°13.665 2°55.955 126.5 -999 39 9.7
2008-05-06 12:08:57 51°13.665 2°55.955 126.4 -999 292 9.7
2008-05-06 12:09:57 51°13.666 2°55.955 126.4 -999 55 9.8
2008-05-06 12:10:57 51°13.666 2°55.955 124.5 -999 357 9.6
2008-05-06 12:11:57 51°13.666 2°55.954 129.8 -999 57 9.8
2008-05-06 12:12:57 51°13.666 2°55.954 125.9 0.1 232 9.5
2008-05-06 12:13:57 51°13.666 2°55.954 120.2 0.1 290 9.6
2008-05-06 12:14:57 51°13.68 2°55.92 122.7 3 306 -999
2008-05-06 12:15:57 51°13.715 2°55.826 120 4.7 301 -999
2008-05-06 12:16:57 51°13.762 2°55.718 131.6 5 311 -999
2008-05-06 12:17:57 51°13.825 2°55.634 154.5 4.8 331 -999
2008-05-06 12:18:57 51°13.896 2°55.628 198.4 4.3 15 -999
2008-05-06 12:19:57 51°13.944 2°55.671 227.5 2.3 41 -999
2008-05-06 12:20:57 51°13.951 2°55.655 280.2 2 281 -999
2008-05-06 12:21:57 51°13.973 2°55.592 309.1 3.3 307 -999
2008-05-06 12:22:57 51°14.019 2°55.524 325.6 4.1 325 -999
2008-05-06 12:23:57 51°14.082 2°55.464 333.1 4.7 332 -999
2008-05-06 12:24:57 51°14.153 2°55.405 330.7 4.8 327 -999
2008-05-06 12:25:57 51°14.232 2°55.291 316 8.1 314 -999
2008-05-06 12:26:57 51°14.325 2°55.115 308.8 9 307 13.9
2008-05-06 12:27:57 51°14.419 2°54.913 295.2 9.8 299 13.7
2008-05-06 12:28:57 51°14.48 2°54.653 279.9 11 286 13.6
2008-05-06 12:29:57 51°14.54 2°54.373 280.3 11.1 287 13.7
2008-05-06 12:30:57 51°14.589 2°54.089 275.8 11 281 14.1
2008-05-06 12:31:57 51°14.591 2°53.802 260.7 10.9 270 13.3
2008-05-06 12:32:57 51°14.589 2°53.515 262.3 10.8 269 11.7
2008-05-06 12:33:57 51°14.586 2°53.225 265.1 11.1 272 11.8
2008-05-06 12:34:57 51°14.59 2°52.931 266.2 11.1 270 12.2
2008-05-06 12:35:57 51°14.613 2°52.633 277.2 11.6 283 12.6
2008-05-06 12:36:57 51°14.654 2°52.337 274.8 11.2 281 12.8
2008-05-06 12:37:57 51°14.703 2°52.046 285.1 11.5 292 13
2008-05-06 12:38:57 51°14.789 2°51.771 291.8 11.6 298 13.5
2008-05-06 12:39:57 51°14.871 2°51.494 285.7 11.4 292 14.1
2008-05-06 12:40:57 51°14.951 2°51.219 288.7 11.5 297 14.8
2008-05-06 12:41:57 51°15.031 2°50.946 287.1 11.4 295 15.4
2008-05-06 12:42:57 51°15.109 2°50.693 289.3 8.1 300 15.5
2008-05-06 12:43:57 51°15.134 2°50.587 248 2.6 243 15.7
2008-05-06 12:44:57 51°15.094 2°50.576 194.4 2.4 167 15.7
2008-05-06 12:45:57 51°15.059 2°50.605 177.1 3.2 155 15.8
2008-05-06 12:46:57 51°15.001 2°50.607 203.1 3.3 189 15.6
2008-05-06 12:47:57 51°14.947 2°50.596 202.1 3.3 190 15.5
2008-05-06 12:48:57 51°14.904 2°50.56 227.1 2.8 220 15.3
2008-05-06 12:49:57 51°14.87 2°50.509 227.4 2.8 222 15.3
2008-05-06 12:50:57 51°14.835 2°50.46 226.4 2.8 220 15.3
2008-05-06 12:51:57 51°14.798 2°50.413 222.9 2.9 215 15.2
2008-05-06 12:52:57 51°14.757 2°50.373 219.4 2.9 210 15.2
2008-05-06 12:53:57 51°14.713 2°50.34 214.8 2.9 201 15.1
2008-05-06 12:54:57 51°14.666 2°50.318 208.1 3 193 14.9
2008-05-06 12:55:57 51°14.616 2°50.306 201.8 3.2 185 14.8
2008-05-06 12:56:57 51°14.562 2°50.306 194.1 3.3 176 14.6
2008-05-06 12:57:57 51°14.507 2°50.311 193.7 3.4 179 14.3
2008-05-06 12:58:57 51°14.453 2°50.304 201.7 3.3 189 13.9
2008-05-06 12:59:57 51°14.402 2°50.278 213.5 3.1 206 13.7
2008-05-06 13:00:57 51°14.361 2°50.231 227.7 3 224 13.5
2008-05-06 13:01:57 51°14.336 2°50.164 246.7 3 251 13.5
2008-05-06 13:02:57 51°14.325 2°50.087 254.2 3 260 13.6
2008-05-06 13:03:57 51°14.318 2°50.008 257.6 3 265 13.7
2008-05-06 13:04:57 51°14.315 2°49.93 259.2 3 267 13.9
2008-05-06 13:05:57 51°14.313 2°49.851 261.2 3 270 14
2008-05-06 13:06:57 51°14.313 2°49.773 263.1 2.9 270 14.2
2008-05-06 13:07:57 51°14.315 2°49.695 266.3 2.9 273 14.4
2008-05-06 13:08:57 51°14.321 2°49.616 269.2 3.1 280 14.6
2008-05-06 13:09:57 51°14.331 2°49.537 273.5 3.1 284 14.8
2008-05-06 13:10:57 51°14.347 2°49.458 279 3.2 291 14.8
2008-05-06 13:11:57 51°14.369 2°49.381 284.2 3.2 297 14.9
2008-05-06 13:12:57 51°14.397 2°49.307 289.5 3.3 304 14.9
2008-05-06 13:13:57 51°14.43 2°49.236 294 3.3 308 14.9
2008-05-06 13:14:57 51°14.466 2°49.17 298.2 3.3 313 15.1
2008-05-06 13:15:57 51°14.505 2°49.11 302.3 3.3 317 15.1
2008-05-06 13:16:57 51°14.547 2°49.05 304.6 3.4 320 15.2
2008-05-06 13:17:57 51°14.591 2°48.993 307.9 3.5 322 15.4
2008-05-06 13:18:57 51°14.637 2°48.938 310.6 3.5 325 15.4
2008-05-06 13:19:57 51°14.689 2°48.897 325.7 3.6 344 15.5
2008-05-06 13:20:57 51°14.747 2°48.89 349 3.3 4 15.6
2008-05-06 13:21:57 51°14.798 2°48.903 0.6 2.8 15 15.7
2008-05-06 13:22:57 51°14.825 2°48.92 353.8 1.2 27 15.8
2008-05-06 13:23:57 51°14.84 2°48.932 341.1 0.9 23 15.7
2008-05-06 13:24:57 51°14.85 2°48.94 325.6 0.6 31 15.7
2008-05-06 13:25:57 51°14.856 2°48.949 314.5 0.5 52 15.7
2008-05-06 13:26:57 51°14.865 2°48.953 311.5 1.8 337 15.7
2008-05-06 13:27:57 51°14.923 2°48.966 19.5 4.8 32 15.7
2008-05-06 13:28:57 51°14.963 2°49.097 88.5 6.7 86 15.7
2008-05-06 13:29:57 51°14.97 2°49.337 90.6 10.1 87 15.8
2008-05-06 13:30:57 51°14.97 2°49.609 94.7 10.4 91 15.9
2008-05-06 13:31:57 51°14.963 2°49.887 97 10.9 94 15.7
2008-05-06 13:32:57 51°14.947 2°50.222 97.9 13.2 95 15.4
2008-05-06 13:33:57 51°14.926 2°50.573 99.1 13.3 96 15.1
2008-05-06 13:34:57 51°14.905 2°50.923 98.2 13.2 94 14.7
2008-05-06 13:35:57 51°14.889 2°51.273 98.3 13.2 94 14.4
2008-05-06 13:36:57 51°14.865 2°51.618 98.7 13.1 96 13.8
2008-05-06 13:37:57 51°14.841 2°51.963 97.8 13 97 13.3
2008-05-06 13:38:57 51°14.822 2°52.308 97.8 13.1 95 12.9
2008-05-06 13:39:57 51°14.804 2°52.652 96.6 12.9 95 12.6
2008-05-06 13:40:57 51°14.778 2°52.995 99.8 13 97 12.4
2008-05-06 13:41:57 51°14.752 2°53.338 98 13 95 12.8
2008-05-06 13:42:57 51°14.728 2°53.678 99.2 13 96 13.5
2008-05-06 13:43:57 51°14.706 2°54.022 98.8 13.2 97 13.6
2008-05-06 13:44:57 51°14.657 2°54.361 105.3 13.2 102 13.1
2008-05-06 13:45:57 51°14.557 2°54.642 133.5 12.3 131 13.1
2008-05-06 13:46:57 51°14.449 2°54.873 136.8 10.1 130 13.6
2008-05-06 13:47:57 51°14.352 2°55.077 123.3 8.6 126 13.7
2008-05-06 13:48:57 51°14.269 2°55.244 124.4 7.8 128 13.1
2008-05-06 13:49:57 51°14.186 2°55.375 136.3 5.7 139 -999
2008-05-06 13:50:57 51°14.121 2°55.444 148 4.1 151 -999
2008-05-06 13:51:57 51°14.056 2°55.493 155.2 4.9 158 -999
2008-05-06 13:52:57 51°13.974 2°55.548 154.2 5.6 158 -999
2008-05-06 13:53:57 51°13.886 2°55.601 157.1 5.3 162 -999
2008-05-06 13:54:57 51°13.812 2°55.644 152.3 4.1 153 -999
2008-05-06 13:55:57 51°13.771 2°55.702 127.5 3.1 132 12.1
2008-05-06 13:56:57 51°13.737 2°55.768 124.7 3.3 128 -999
2008-05-06 13:57:57 51°13.704 2°55.834 123 2.9 127 -999
2008-05-06 13:58:57 51°13.682 2°55.898 109.9 2.4 114 9.3
2008-05-06 13:59:57 51°13.67 2°55.941 110.2 1.4 116 9.4